sensor_id;sensor_type;location;lat;lon;timestamp;pressure;altitude;pressure_sealevel;temperature;humidity
20987;BME280;10652;50.306;8.570;2022-08-06T00:03:38;98677.78;;;15.67;76.95
20987;BME280;10652;50.306;8.570;2022-08-06T00:07:40;98671.31;;;15.55;78.53
20987;BME280;10652;50.306;8.570;2022-08-06T00:11:49;98675.38;;;15.43;79.65
20987;BME280;10652;50.306;8.570;2022-08-06T00:16:00;98691.91;;;15.47;80.82
20987;BME280;10652;50.306;8.570;2022-08-06T00:20:22;98687.44;;;15.49;80.08
20987;BME280;10652;50.306;8.570;2022-08-06T00:24:32;98681.19;;;15.50;81.06
20987;BME280;10652;50.306;8.570;2022-08-06T00:28:34;98691.66;;;15.53;81.03
20987;BME280;10652;50.306;8.570;2022-08-06T00:32:36;98703.06;;;15.53;80.79
20987;BME280;10652;50.306;8.570;2022-08-06T00:36:39;98696.94;;;15.34;79.63
20987;BME280;10652;50.306;8.570;2022-08-06T00:40:41;98710.19;;;15.33;80.28
20987;BME280;10652;50.306;8.570;2022-08-06T00:44:59;98712.06;;;15.31;79.00
20987;BME280;10652;50.306;8.570;2022-08-06T00:49:03;98705.50;;;15.02;79.37
20987;BME280;10652;50.306;8.570;2022-08-06T00:53:12;98709.03;;;14.82;77.47
20987;BME280;10652;50.306;8.570;2022-08-06T00:57:15;98708.91;;;14.66;76.22
20987;BME280;10652;50.306;8.570;2022-08-06T01:01:17;98707.13;;;14.47;76.25
20987;BME280;10652;50.306;8.570;2022-08-06T01:05:19;98709.63;;;14.30;75.92
20987;BME280;10652;50.306;8.570;2022-08-06T01:09:41;98722.34;;;14.20;76.63
20987;BME280;10652;50.306;8.570;2022-08-06T01:13:58;98723.97;;;14.22;77.77
20987;BME280;10652;50.306;8.570;2022-08-06T01:18:11;98727.81;;;14.36;77.32
20987;BME280;10652;50.306;8.570;2022-08-06T01:26:40;98735.06;;;14.51;77.38
20987;BME280;10652;50.306;8.570;2022-08-06T01:31:05;98739.28;;;14.55;79.24
20987;BME280;10652;50.306;8.570;2022-08-06T01:35:14;98737.69;;;14.51;80.61
20987;BME280;10652;50.306;8.570;2022-08-06T01:39:38;98744.75;;;14.50;80.85
20987;BME280;10652;50.306;8.570;2022-08-06T01:44:03;98752.59;;;14.52;81.08
20987;BME280;10652;50.306;8.570;2022-08-06T01:48:20;98752.41;;;14.56;81.15
20987;BME280;10652;50.306;8.570;2022-08-06T01:52:33;98748.75;;;14.59;80.89
20987;BME280;10652;50.306;8.570;2022-08-06T01:56:41;98760.56;;;14.50;79.89
20987;BME280;10652;50.306;8.570;2022-08-06T02:01:02;98756.19;;;14.29;78.51
20987;BME280;10652;50.306;8.570;2022-08-06T02:05:06;98757.50;;;14.19;78.67
20987;BME280;10652;50.306;8.570;2022-08-06T02:09:17;98764.69;;;14.15;79.64
20987;BME280;10652;50.306;8.570;2022-08-06T02:13:30;98769.13;;;14.13;79.36
20987;BME280;10652;50.306;8.570;2022-08-06T02:17:50;98776.84;;;14.18;80.26
20987;BME280;10652;50.306;8.570;2022-08-06T02:22:08;98773.00;;;14.05;79.48
20987;BME280;10652;50.306;8.570;2022-08-06T02:26:11;98770.72;;;13.97;79.33
20987;BME280;10652;50.306;8.570;2022-08-06T02:30:16;98772.66;;;13.92;78.90
20987;BME280;10652;50.306;8.570;2022-08-06T02:34:20;98783.81;;;13.77;79.74
20987;BME280;10652;50.306;8.570;2022-08-06T02:39:02;98789.88;;;13.79;80.02
20987;BME280;10652;50.306;8.570;2022-08-06T02:43:28;98801.31;;;13.78;80.74
20987;BME280;10652;50.306;8.570;2022-08-06T02:47:38;98796.19;;;13.75;80.96
20987;BME280;10652;50.306;8.570;2022-08-06T02:52:11;98784.53;;;13.59;79.65
20987;BME280;10652;50.306;8.570;2022-08-06T02:56:37;98791.22;;;13.22;79.96
20987;BME280;10652;50.306;8.570;2022-08-06T03:00:48;98794.50;;;13.04;82.27
20987;BME280;10652;50.306;8.570;2022-08-06T03:04:54;98799.94;;;13.00;81.72
20987;BME280;10652;50.306;8.570;2022-08-06T03:09:00;98797.47;;;12.95;82.69
20987;BME280;10652;50.306;8.570;2022-08-06T03:13:04;98812.34;;;12.96;81.81
20987;BME280;10652;50.306;8.570;2022-08-06T03:17:13;98809.94;;;12.90;81.80
20987;BME280;10652;50.306;8.570;2022-08-06T03:21:21;98813.25;;;12.95;82.21
20987;BME280;10652;50.306;8.570;2022-08-06T03:25:27;98817.41;;;13.01;82.39
20987;BME280;10652;50.306;8.570;2022-08-06T03:29:33;98817.53;;;12.98;82.11
20987;BME280;10652;50.306;8.570;2022-08-06T03:33:36;98814.91;;;12.98;82.69
20987;BME280;10652;50.306;8.570;2022-08-06T03:37:56;98814.75;;;13.02;83.17
20987;BME280;10652;50.306;8.570;2022-08-06T03:42:03;98823.75;;;12.95;81.15
20987;BME280;10652;50.306;8.570;2022-08-06T03:46:10;98840.88;;;12.82;83.20
20987;BME280;10652;50.306;8.570;2022-08-06T03:50:16;98833.06;;;12.80;83.70
20987;BME280;10652;50.306;8.570;2022-08-06T03:54:27;98835.56;;;12.83;83.69
20987;BME280;10652;50.306;8.570;2022-08-06T03:58:36;98842.41;;;12.89;83.24
20987;BME280;10652;50.306;8.570;2022-08-06T04:02:49;98851.16;;;12.89;82.19
20987;BME280;10652;50.306;8.570;2022-08-06T04:06:58;98847.41;;;12.72;81.73
20987;BME280;10652;50.306;8.570;2022-08-06T04:11:03;98846.34;;;12.51;81.14
20987;BME280;10652;50.306;8.570;2022-08-06T04:15:27;98852.38;;;12.28;81.58
20987;BME280;10652;50.306;8.570;2022-08-06T04:19:30;98854.34;;;12.22;83.55
20987;BME280;10652;50.306;8.570;2022-08-06T04:23:39;98856.00;;;12.24;82.71
20987;BME280;10652;50.306;8.570;2022-08-06T04:27:42;98861.78;;;12.35;83.52
20987;BME280;10652;50.306;8.570;2022-08-06T04:31:56;98859.81;;;12.40;82.68
20987;BME280;10652;50.306;8.570;2022-08-06T04:36:19;98859.47;;;12.51;81.98
20987;BME280;10652;50.306;8.570;2022-08-06T04:40:27;98865.09;;;12.67;82.45
20987;BME280;10652;50.306;8.570;2022-08-06T04:44:36;98873.72;;;14.11;81.96
20987;BME280;10652;50.306;8.570;2022-08-06T04:48:46;98870.28;;;15.90;74.87
20987;BME280;10652;50.306;8.570;2022-08-06T04:52:53;98874.38;;;17.36;66.14
20987;BME280;10652;50.306;8.570;2022-08-06T04:56:57;98872.47;;;18.65;58.29
20987;BME280;10652;50.306;8.570;2022-08-06T05:01:00;98878.38;;;20.40;54.20
20987;BME280;10652;50.306;8.570;2022-08-06T05:05:13;98882.97;;;21.55;49.35
20987;BME280;10652;50.306;8.570;2022-08-06T05:09:19;98879.28;;;18.99;49.70
20987;BME280;10652;50.306;8.570;2022-08-06T05:13:27;98880.66;;;19.06;53.22
20987;BME280;10652;50.306;8.570;2022-08-06T05:17:47;98873.25;;;21.79;49.92
20987;BME280;10652;50.306;8.570;2022-08-06T05:21:51;98871.59;;;24.43;45.06
20987;BME280;10652;50.306;8.570;2022-08-06T05:26:14;98876.78;;;24.56;41.87
20987;BME280;10652;50.306;8.570;2022-08-06T05:30:26;98880.19;;;25.52;40.98
20987;BME280;10652;50.306;8.570;2022-08-06T05:34:29;98887.41;;;27.00;38.56
20987;BME280;10652;50.306;8.570;2022-08-06T05:38:36;98894.97;;;25.46;38.24
20987;BME280;10652;50.306;8.570;2022-08-06T05:42:53;98889.59;;;24.41;41.00
20987;BME280;10652;50.306;8.570;2022-08-06T05:47:06;98891.91;;;27.28;36.95
20987;BME280;10652;50.306;8.570;2022-08-06T05:51:18;98908.38;;;29.52;34.13
20987;BME280;10652;50.306;8.570;2022-08-06T05:55:48;98903.06;;;30.94;31.73
20987;BME280;10652;50.306;8.570;2022-08-06T06:00:06;98901.19;;;32.31;30.57
20987;BME280;10652;50.306;8.570;2022-08-06T06:04:33;98897.91;;;33.80;28.83
20987;BME280;10652;50.306;8.570;2022-08-06T06:08:36;98907.19;;;33.71;27.79
20987;BME280;10652;50.306;8.570;2022-08-06T06:12:56;98902.63;;;34.15;27.60
20987;BME280;10652;50.306;8.570;2022-08-06T06:17:25;98916.22;;;34.15;26.78
20987;BME280;10652;50.306;8.570;2022-08-06T06:22:02;98910.69;;;33.79;26.67
20987;BME280;10652;50.306;8.570;2022-08-06T06:26:35;98920.22;;;33.90;26.94
20987;BME280;10652;50.306;8.570;2022-08-06T06:30:53;98925.09;;;34.89;26.33
20987;BME280;10652;50.306;8.570;2022-08-06T06:39:28;98918.22;;;34.72;25.90
20987;BME280;10652;50.306;8.570;2022-08-06T06:44:01;98919.19;;;35.43;26.16
20987;BME280;10652;50.306;8.570;2022-08-06T06:48:13;98920.88;;;35.22;25.30
20987;BME280;10652;50.306;8.570;2022-08-06T06:52:27;98922.09;;;33.37;26.66
20987;BME280;10652;50.306;8.570;2022-08-06T06:56:37;98920.19;;;31.27;28.01
20987;BME280;10652;50.306;8.570;2022-08-06T07:00:43;98938.47;;;31.57;29.05
20987;BME280;10652;50.306;8.570;2022-08-06T07:05:07;98942.84;;;31.50;28.49
20987;BME280;10652;50.306;8.570;2022-08-06T07:09:18;98931.81;;;30.95;29.43
20987;BME280;10652;50.306;8.570;2022-08-06T07:13:42;98934.19;;;26.78;33.73
20987;BME280;10652;50.306;8.570;2022-08-06T07:17:53;98937.06;;;23.72;37.76
20987;BME280;10652;50.306;8.570;2022-08-06T07:22:10;98943.22;;;21.83;41.74
20987;BME280;10652;50.306;8.570;2022-08-06T07:26:20;98945.41;;;20.86;44.73
20987;BME280;10652;50.306;8.570;2022-08-06T07:30:24;98944.47;;;19.91;47.24
20987;BME280;10652;50.306;8.570;2022-08-06T07:34:26;98950.19;;;19.57;48.14
20987;BME280;10652;50.306;8.570;2022-08-06T07:38:31;98952.09;;;19.25;49.70
20987;BME280;10652;50.306;8.570;2022-08-06T07:42:40;98959.41;;;19.21;50.64
20987;BME280;10652;50.306;8.570;2022-08-06T07:46:46;98967.53;;;18.88;51.17
20987;BME280;10652;50.306;8.570;2022-08-06T07:50:53;98953.66;;;18.83;52.53
20987;BME280;10652;50.306;8.570;2022-08-06T07:54:56;98963.63;;;18.64;53.46
20987;BME280;10652;50.306;8.570;2022-08-06T07:59:00;98955.66;;;18.48;54.05
20987;BME280;10652;50.306;8.570;2022-08-06T08:03:04;98957.78;;;18.42;54.29
20987;BME280;10652;50.306;8.570;2022-08-06T08:07:45;98965.00;;;18.55;54.21
20987;BME280;10652;50.306;8.570;2022-08-06T08:11:59;98967.22;;;18.63;53.15
20987;BME280;10652;50.306;8.570;2022-08-06T08:16:22;98958.66;;;18.74;52.25
20987;BME280;10652;50.306;8.570;2022-08-06T08:20:32;98959.97;;;18.96;52.23
20987;BME280;10652;50.306;8.570;2022-08-06T08:24:38;98962.41;;;19.15;49.81
20987;BME280;10652;50.306;8.570;2022-08-06T08:28:40;98962.59;;;19.26;48.93
20987;BME280;10652;50.306;8.570;2022-08-06T08:32:44;98959.03;;;19.41;49.08
20987;BME280;10652;50.306;8.570;2022-08-06T08:36:48;98962.13;;;19.64;48.30
20987;BME280;10652;50.306;8.570;2022-08-06T08:40:51;98961.19;;;20.07;46.51
20987;BME280;10652;50.306;8.570;2022-08-06T08:44:56;98962.13;;;20.49;45.08
20987;BME280;10652;50.306;8.570;2022-08-06T08:49:01;98953.91;;;20.52;44.86
20987;BME280;10652;50.306;8.570;2022-08-06T08:53:13;98963.72;;;20.51;44.49
20987;BME280;10652;50.306;8.570;2022-08-06T08:57:36;98958.94;;;20.56;43.40
20987;BME280;10652;50.306;8.570;2022-08-06T09:01:58;98953.84;;;20.53;43.88
20987;BME280;10652;50.306;8.570;2022-08-06T09:06:02;98965.13;;;20.57;44.66
20987;BME280;10652;50.306;8.570;2022-08-06T09:10:09;98962.31;;;20.17;45.41
20987;BME280;10652;50.306;8.570;2022-08-06T09:14:17;98961.19;;;20.07;44.87
20987;BME280;10652;50.306;8.570;2022-08-06T09:18:22;98962.06;;;20.08;44.02
20987;BME280;10652;50.306;8.570;2022-08-06T09:22:28;98965.00;;;20.03;44.70
20987;BME280;10652;50.306;8.570;2022-08-06T09:26:31;98959.56;;;20.33;45.61
20987;BME280;10652;50.306;8.570;2022-08-06T09:31:18;98963.78;;;20.50;45.74
20987;BME280;10652;50.306;8.570;2022-08-06T09:35:31;98962.25;;;20.60;44.83
20987;BME280;10652;50.306;8.570;2022-08-06T09:39:47;98959.19;;;20.66;44.87
20987;BME280;10652;50.306;8.570;2022-08-06T09:44:10;98962.81;;;20.65;44.16
20987;BME280;10652;50.306;8.570;2022-08-06T09:48:34;98963.72;;;20.78;43.71
20987;BME280;10652;50.306;8.570;2022-08-06T09:52:36;98969.56;;;20.70;43.64
20987;BME280;10652;50.306;8.570;2022-08-06T09:56:43;98960.44;;;20.60;43.17
20987;BME280;10652;50.306;8.570;2022-08-06T10:00:45;98967.38;;;20.63;43.83
20987;BME280;10652;50.306;8.570;2022-08-06T10:04:51;98962.03;;;20.90;42.78
20987;BME280;10652;50.306;8.570;2022-08-06T10:09:07;98973.75;;;20.87;43.93
20987;BME280;10652;50.306;8.570;2022-08-06T10:13:31;98965.00;;;20.85;43.68
20987;BME280;10652;50.306;8.570;2022-08-06T10:17:48;98958.00;;;20.84;43.28
20987;BME280;10652;50.306;8.570;2022-08-06T10:21:53;98961.34;;;20.73;42.06
20987;BME280;10652;50.306;8.570;2022-08-06T10:25:57;98957.16;;;20.57;42.31
20987;BME280;10652;50.306;8.570;2022-08-06T10:30:07;98956.94;;;20.60;43.57
20987;BME280;10652;50.306;8.570;2022-08-06T10:34:13;98955.41;;;20.82;42.95
20987;BME280;10652;50.306;8.570;2022-08-06T10:38:20;98945.97;;;20.91;42.95
20987;BME280;10652;50.306;8.570;2022-08-06T10:42:37;98948.97;;;20.99;42.45
20987;BME280;10652;50.306;8.570;2022-08-06T10:46:42;98942.06;;;20.97;42.25
20987;BME280;10652;50.306;8.570;2022-08-06T10:50:46;98948.19;;;20.84;41.72
20987;BME280;10652;50.306;8.570;2022-08-06T10:54:58;98950.91;;;20.70;38.92
20987;BME280;10652;50.306;8.570;2022-08-06T10:59:05;98947.69;;;20.65;40.59
20987;BME280;10652;50.306;8.570;2022-08-06T11:12:16;98948.00;;;21.00;38.58
20987;BME280;10652;50.306;8.570;2022-08-06T11:16:25;98951.91;;;21.21;39.48
20987;BME280;10652;50.306;8.570;2022-08-06T11:24:49;98931.41;;;20.97;38.98
20987;BME280;10652;50.306;8.570;2022-08-06T11:32:56;98929.50;;;21.11;39.54
20987;BME280;10652;50.306;8.570;2022-08-06T11:36:58;98921.47;;;21.25;39.59
20987;BME280;10652;50.306;8.570;2022-08-06T11:41:23;98913.59;;;21.37;39.93
20987;BME280;10652;50.306;8.570;2022-08-06T11:46:22;98910.81;;;21.51;40.18
20987;BME280;10652;50.306;8.570;2022-08-06T11:50:36;98913.38;;;21.65;39.14
20987;BME280;10652;50.306;8.570;2022-08-06T11:59:10;98915.28;;;21.63;39.54
20987;BME280;10652;50.306;8.570;2022-08-06T12:03:35;98905.25;;;21.79;37.25
20987;BME280;10652;50.306;8.570;2022-08-06T12:08:10;98895.66;;;21.89;37.82
20987;BME280;10652;50.306;8.570;2022-08-06T12:16:29;98898.84;;;22.31;38.04
20987;BME280;10652;50.306;8.570;2022-08-06T12:20:38;98910.09;;;22.23;37.24
20987;BME280;10652;50.306;8.570;2022-08-06T12:24:54;98890.50;;;22.11;36.84
20987;BME280;10652;50.306;8.570;2022-08-06T12:29:13;98891.38;;;21.99;37.83
20987;BME280;10652;50.306;8.570;2022-08-06T12:33:20;98876.34;;;22.22;37.42
20987;BME280;10652;50.306;8.570;2022-08-06T12:37:34;98870.75;;;22.38;37.10
20987;BME280;10652;50.306;8.570;2022-08-06T12:41:48;98870.00;;;22.36;36.75
20987;BME280;10652;50.306;8.570;2022-08-06T12:46:01;98876.25;;;22.24;37.22
20987;BME280;10652;50.306;8.570;2022-08-06T12:50:19;98868.16;;;22.12;36.65
20987;BME280;10652;50.306;8.570;2022-08-06T12:54:31;98878.25;;;21.96;37.13
20987;BME280;10652;50.306;8.570;2022-08-06T12:58:37;98878.78;;;22.01;35.59
20987;BME280;10652;50.306;8.570;2022-08-06T13:02:44;98868.50;;;22.08;35.05
20987;BME280;10652;50.306;8.570;2022-08-06T13:06:48;98864.03;;;22.08;35.57
20987;BME280;10652;50.306;8.570;2022-08-06T13:10:53;98875.13;;;22.39;35.37
20987;BME280;10652;50.306;8.570;2022-08-06T13:14:57;98871.63;;;22.38;35.53
20987;BME280;10652;50.306;8.570;2022-08-06T13:19:19;98858.72;;;22.56;36.47
20987;BME280;10652;50.306;8.570;2022-08-06T13:23:38;98855.94;;;22.57;35.36
20987;BME280;10652;50.306;8.570;2022-08-06T13:27:45;98854.44;;;22.77;35.96
20987;BME280;10652;50.306;8.570;2022-08-06T13:32:05;98853.03;;;22.84;36.04
20987;BME280;10652;50.306;8.570;2022-08-06T13:36:29;98853.94;;;22.72;35.16
20987;BME280;10652;50.306;8.570;2022-08-06T13:40:48;98849.97;;;22.78;35.48
20987;BME280;10652;50.306;8.570;2022-08-06T13:44:58;98850.78;;;23.02;34.68
20987;BME280;10652;50.306;8.570;2022-08-06T13:49:00;98844.72;;;23.11;35.24
20987;BME280;10652;50.306;8.570;2022-08-06T13:53:16;98846.03;;;23.05;34.69
20987;BME280;10652;50.306;8.570;2022-08-06T13:57:18;98852.53;;;22.90;35.04
20987;BME280;10652;50.306;8.570;2022-08-06T14:01:22;98838.81;;;22.84;34.95
20987;BME280;10652;50.306;8.570;2022-08-06T14:05:24;98843.75;;;22.77;34.78
20987;BME280;10652;50.306;8.570;2022-08-06T14:09:28;98836.75;;;22.87;35.33
20987;BME280;10652;50.306;8.570;2022-08-06T14:13:52;98830.91;;;22.82;35.63
20987;BME280;10652;50.306;8.570;2022-08-06T14:17:54;98839.53;;;22.86;35.19
20987;BME280;10652;50.306;8.570;2022-08-06T14:21:58;98833.69;;;22.70;35.56
20987;BME280;10652;50.306;8.570;2022-08-06T14:26:00;98841.16;;;22.65;35.57
20987;BME280;10652;50.306;8.570;2022-08-06T14:30:05;98845.88;;;22.61;34.81
20987;BME280;10652;50.306;8.570;2022-08-06T14:34:27;98844.97;;;22.73;35.43
20987;BME280;10652;50.306;8.570;2022-08-06T14:38:36;98837.47;;;22.78;34.38
20987;BME280;10652;50.306;8.570;2022-08-06T14:42:43;98824.84;;;22.80;34.48
20987;BME280;10652;50.306;8.570;2022-08-06T14:47:04;98831.09;;;23.03;34.19
20987;BME280;10652;50.306;8.570;2022-08-06T14:51:11;98825.63;;;22.93;33.54
20987;BME280;10652;50.306;8.570;2022-08-06T14:55:24;98818.31;;;22.95;34.23
20987;BME280;10652;50.306;8.570;2022-08-06T14:59:26;98821.91;;;22.72;34.55
20987;BME280;10652;50.306;8.570;2022-08-06T15:03:48;98806.41;;;22.88;34.46
20987;BME280;10652;50.306;8.570;2022-08-06T15:07:50;98818.25;;;22.73;34.24
20987;BME280;10652;50.306;8.570;2022-08-06T15:11:59;98806.72;;;22.73;34.11
20987;BME280;10652;50.306;8.570;2022-08-06T15:16:06;98802.75;;;22.78;34.72
20987;BME280;10652;50.306;8.570;2022-08-06T15:20:29;98811.25;;;22.83;34.36
20987;BME280;10652;50.306;8.570;2022-08-06T15:24:31;98791.84;;;22.92;34.04
20987;BME280;10652;50.306;8.570;2022-08-06T15:28:39;98790.13;;;22.91;34.07
20987;BME280;10652;50.306;8.570;2022-08-06T15:32:50;98790.34;;;22.77;33.65
20987;BME280;10652;50.306;8.570;2022-08-06T15:36:58;98793.50;;;22.71;34.48
20987;BME280;10652;50.306;8.570;2022-08-06T15:41:05;98787.31;;;22.71;34.19
20987;BME280;10652;50.306;8.570;2022-08-06T15:45:08;98783.72;;;22.59;33.72
20987;BME280;10652;50.306;8.570;2022-08-06T15:49:30;98792.94;;;22.55;34.86
20987;BME280;10652;50.306;8.570;2022-08-06T15:53:54;98791.22;;;22.54;34.56
20987;BME280;10652;50.306;8.570;2022-08-06T15:57:59;98793.16;;;22.52;33.92
20987;BME280;10652;50.306;8.570;2022-08-06T16:02:08;98780.00;;;22.38;34.32
20987;BME280;10652;50.306;8.570;2022-08-06T16:06:30;98794.06;;;22.40;34.08
20987;BME280;10652;50.306;8.570;2022-08-06T16:10:33;98777.34;;;22.38;34.58
20987;BME280;10652;50.306;8.570;2022-08-06T16:14:35;98786.81;;;22.42;34.52
20987;BME280;10652;50.306;8.570;2022-08-06T16:18:59;98780.00;;;22.38;34.42
20987;BME280;10652;50.306;8.570;2022-08-06T16:23:03;98776.31;;;22.28;34.19
20987;BME280;10652;50.306;8.570;2022-08-06T16:27:13;98766.00;;;22.23;34.55
20987;BME280;10652;50.306;8.570;2022-08-06T16:31:18;98773.66;;;22.28;34.71
20987;BME280;10652;50.306;8.570;2022-08-06T16:35:22;98776.44;;;22.26;34.63
20987;BME280;10652;50.306;8.570;2022-08-06T16:39:24;98770.63;;;22.32;34.47
20987;BME280;10652;50.306;8.570;2022-08-06T16:43:38;98775.13;;;22.32;35.01
20987;BME280;10652;50.306;8.570;2022-08-06T16:47:47;98762.53;;;22.34;34.60
20987;BME280;10652;50.306;8.570;2022-08-06T16:52:09;98774.75;;;22.25;34.02
20987;BME280;10652;50.306;8.570;2022-08-06T16:56:31;98774.59;;;22.15;34.62
20987;BME280;10652;50.306;8.570;2022-08-06T17:00:33;98760.63;;;22.12;34.89
20987;BME280;10652;50.306;8.570;2022-08-06T17:04:56;98766.75;;;22.01;34.85
20987;BME280;10652;50.306;8.570;2022-08-06T17:09:02;98770.63;;;21.97;35.07
20987;BME280;10652;50.306;8.570;2022-08-06T17:13:19;98770.41;;;21.88;34.44
20987;BME280;10652;50.306;8.570;2022-08-06T17:17:40;98763.25;;;21.88;35.02
20987;BME280;10652;50.306;8.570;2022-08-06T17:21:49;98768.31;;;21.80;35.04
20987;BME280;10652;50.306;8.570;2022-08-06T17:25:59;98768.75;;;21.74;35.36
20987;BME280;10652;50.306;8.570;2022-08-06T17:30:13;98765.31;;;21.72;35.80
20987;BME280;10652;50.306;8.570;2022-08-06T17:34:17;98773.56;;;21.69;35.76
20987;BME280;10652;50.306;8.570;2022-08-06T17:38:20;98770.59;;;21.61;35.42
20987;BME280;10652;50.306;8.570;2022-08-06T17:42:24;98769.56;;;21.51;35.40
20987;BME280;10652;50.306;8.570;2022-08-06T17:46:27;98771.16;;;21.41;35.03
20987;BME280;10652;50.306;8.570;2022-08-06T17:50:37;98769.06;;;21.33;35.28
20987;BME280;10652;50.306;8.570;2022-08-06T17:54:43;98765.97;;;21.26;35.39
20987;BME280;10652;50.306;8.570;2022-08-06T17:59:02;98779.94;;;21.17;35.62
20987;BME280;10652;50.306;8.570;2022-08-06T18:03:19;98769.88;;;21.08;35.57
20987;BME280;10652;50.306;8.570;2022-08-06T18:07:41;98779.69;;;20.95;35.73
20987;BME280;10652;50.306;8.570;2022-08-06T18:12:03;98777.88;;;20.83;35.59
20987;BME280;10652;50.306;8.570;2022-08-06T18:16:10;98782.34;;;20.70;36.00
20987;BME280;10652;50.306;8.570;2022-08-06T18:20:16;98784.25;;;20.55;36.17
20987;BME280;10652;50.306;8.570;2022-08-06T18:24:38;98786.59;;;20.47;36.45
20987;BME280;10652;50.306;8.570;2022-08-06T18:28:44;98790.91;;;20.35;36.65
20987;BME280;10652;50.306;8.570;2022-08-06T18:32:50;98796.78;;;20.26;37.40
20987;BME280;10652;50.306;8.570;2022-08-06T18:36:52;98793.16;;;20.15;37.37
20987;BME280;10652;50.306;8.570;2022-08-06T18:40:54;98789.69;;;20.00;37.65
20987;BME280;10652;50.306;8.570;2022-08-06T18:45:02;98788.03;;;19.85;38.11
20987;BME280;10652;50.306;8.570;2022-08-06T18:49:05;98792.19;;;19.62;38.75
20987;BME280;10652;50.306;8.570;2022-08-06T18:53:10;98792.50;;;19.43;39.50
20987;BME280;10652;50.306;8.570;2022-08-06T18:57:14;98794.47;;;19.26;39.84
20987;BME280;10652;50.306;8.570;2022-08-06T19:01:29;98807.53;;;19.15;39.98
20987;BME280;10652;50.306;8.570;2022-08-06T19:05:35;98807.72;;;18.97;40.22
20987;BME280;10652;50.306;8.570;2022-08-06T19:09:46;98811.03;;;18.87;40.50
20987;BME280;10652;50.306;8.570;2022-08-06T19:13:52;98815.16;;;18.77;40.52
20987;BME280;10652;50.306;8.570;2022-08-06T19:18:14;98817.50;;;18.67;41.04
20987;BME280;10652;50.306;8.570;2022-08-06T19:22:19;98821.91;;;18.52;41.38
20987;BME280;10652;50.306;8.570;2022-08-06T19:26:26;98819.88;;;18.42;41.50
20987;BME280;10652;50.306;8.570;2022-08-06T19:30:31;98826.56;;;18.33;41.83
20987;BME280;10652;50.306;8.570;2022-08-06T19:34:46;98829.56;;;18.27;41.56
20987;BME280;10652;50.306;8.570;2022-08-06T19:38:48;98829.25;;;18.17;41.98
20987;BME280;10652;50.306;8.570;2022-08-06T19:42:53;98834.06;;;18.11;42.24
20987;BME280;10652;50.306;8.570;2022-08-06T19:47:15;98836.44;;;18.00;42.98
20987;BME280;10652;50.306;8.570;2022-08-06T19:51:22;98835.84;;;17.95;43.35
20987;BME280;10652;50.306;8.570;2022-08-06T19:55:45;98839.53;;;17.92;43.47
20987;BME280;10652;50.306;8.570;2022-08-06T20:00:07;98841.41;;;17.90;43.66
20987;BME280;10652;50.306;8.570;2022-08-06T20:04:29;98848.78;;;17.85;44.47
20987;BME280;10652;50.306;8.570;2022-08-06T20:08:32;98843.47;;;17.69;44.96
20987;BME280;10652;50.306;8.570;2022-08-06T20:12:38;98855.63;;;17.56;45.70
20987;BME280;10652;50.306;8.570;2022-08-06T20:16:44;98859.44;;;17.35;46.16
20987;BME280;10652;50.306;8.570;2022-08-06T20:20:46;98860.81;;;17.09;46.72
20987;BME280;10652;50.306;8.570;2022-08-06T20:24:52;98866.91;;;16.94;47.05
20987;BME280;10652;50.306;8.570;2022-08-06T20:28:57;98864.59;;;16.71;47.66
20987;BME280;10652;50.306;8.570;2022-08-06T20:33:20;98859.78;;;16.43;48.31
20987;BME280;10652;50.306;8.570;2022-08-06T20:37:25;98856.03;;;16.30;49.01
20987;BME280;10652;50.306;8.570;2022-08-06T20:41:44;98853.53;;;16.27;49.48
20987;BME280;10652;50.306;8.570;2022-08-06T20:46:07;98854.84;;;16.18;49.79
20987;BME280;10652;50.306;8.570;2022-08-06T20:50:12;98847.91;;;15.98;50.30
20987;BME280;10652;50.306;8.570;2022-08-06T20:54:14;98852.03;;;15.85;50.85
20987;BME280;10652;50.306;8.570;2022-08-06T20:58:19;98846.56;;;15.71;50.90
20987;BME280;10652;50.306;8.570;2022-08-06T21:02:25;98853.31;;;15.58;51.77
20987;BME280;10652;50.306;8.570;2022-08-06T21:06:34;98845.16;;;15.44;52.44
20987;BME280;10652;50.306;8.570;2022-08-06T21:10:36;98846.88;;;15.26;52.92
20987;BME280;10652;50.306;8.570;2022-08-06T21:14:40;98847.38;;;15.14;53.64
20987;BME280;10652;50.306;8.570;2022-08-06T21:18:43;98845.81;;;15.10;53.94
20987;BME280;10652;50.306;8.570;2022-08-06T21:22:45;98850.53;;;15.03;54.00
20987;BME280;10652;50.306;8.570;2022-08-06T21:26:47;98857.63;;;15.01;54.37
20987;BME280;10652;50.306;8.570;2022-08-06T21:30:52;98854.78;;;15.06;54.50
20987;BME280;10652;50.306;8.570;2022-08-06T21:34:54;98855.44;;;14.91;54.67
20987;BME280;10652;50.306;8.570;2022-08-06T21:38:57;98854.41;;;14.75;54.96
20987;BME280;10652;50.306;8.570;2022-08-06T21:43:00;98855.16;;;14.58;55.65
20987;BME280;10652;50.306;8.570;2022-08-06T21:47:03;98849.25;;;14.51;56.30
20987;BME280;10652;50.306;8.570;2022-08-06T21:51:06;98861.44;;;14.54;56.34
20987;BME280;10652;50.306;8.570;2022-08-06T21:55:15;98862.44;;;14.30;57.40
20987;BME280;10652;50.306;8.570;2022-08-06T21:59:37;98861.59;;;14.07;58.02
20987;BME280;10652;50.306;8.570;2022-08-06T22:03:55;98866.47;;;13.95;58.25
20987;BME280;10652;50.306;8.570;2022-08-06T22:08:17;98859.94;;;14.05;58.47
20987;BME280;10652;50.306;8.570;2022-08-06T22:12:19;98871.88;;;14.13;58.14
20987;BME280;10652;50.306;8.570;2022-08-06T22:16:43;98867.09;;;14.01;58.23
20987;BME280;10652;50.306;8.570;2022-08-06T22:20:49;98866.97;;;13.82;58.79
20987;BME280;10652;50.306;8.570;2022-08-06T22:24:51;98872.63;;;13.72;59.85
20987;BME280;10652;50.306;8.570;2022-08-06T22:28:53;98878.94;;;13.68;59.90
20987;BME280;10652;50.306;8.570;2022-08-06T22:32:56;98874.28;;;13.53;60.19
20987;BME280;10652;50.306;8.570;2022-08-06T22:36:58;98874.50;;;13.47;60.81
20987;BME280;10652;50.306;8.570;2022-08-06T22:41:04;98870.44;;;13.38;60.88
20987;BME280;10652;50.306;8.570;2022-08-06T22:45:12;98872.31;;;13.34;61.35